TimePDT,TemperatureF,Dew PointF,Humidity,Sea Level PressureIn,VisibilityMPH,Wind Direction,Wind SpeedMPH,Gust SpeedMPH,PrecipitationIn,Events,Conditions,WindDirDegrees,DateUTC
12:53 AM,43.0,24.1,47,30.03,-9999.0,NNW,10.4,-,N/A,,Unknown,340,2012-10-17 07:53:00
1:53 AM,36.0,23.0,59,30.04,-9999.0,North,4.6,-,N/A,,Unknown,10,2012-10-17 08:53:00
2:53 AM,32.0,21.0,64,30.05,-9999.0,South,4.6,-,N/A,,Unknown,180,2012-10-17 09:53:00
3:53 AM,30.0,19.9,66,30.07,-9999.0,South,4.6,-,N/A,,Unknown,190,2012-10-17 10:53:00
4:53 AM,28.0,19.9,72,30.10,-9999.0,SW,4.6,-,N/A,,Unknown,220,2012-10-17 11:53:00
5:53 AM,26.1,18.0,71,30.12,-9999.0,Calm,Calm,-,N/A,,Unknown,0,2012-10-17 12:53:00
6:53 AM,24.1,16.0,71,30.14,-9999.0,ESE,3.5,-,N/A,,Unknown,120,2012-10-17 13:53:00
7:53 AM,32.0,18.0,56,30.17,-9999.0,South,4.6,-,N/A,,Unknown,190,2012-10-17 14:53:00
8:53 AM,41.0,19.0,41,30.17,-9999.0,Calm,Calm,-,N/A,,Unknown,0,2012-10-17 15:53:00
9:53 AM,48.0,16.0,28,30.16,-9999.0,Calm,Calm,-,N/A,,Unknown,0,2012-10-17 16:53:00
10:53 AM,52.0,14.0,22,30.14,-9999.0,Calm,Calm,-,N/A,,Unknown,0,2012-10-17 17:53:00
11:53 AM,54.0,6.1,15,30.14,-9999.0,Calm,Calm,-,N/A,,Unknown,0,2012-10-17 18:53:00
12:53 PM,59.0,1.0,10,30.12,-9999.0,North,6.9,-,N/A,,Unknown,10,2012-10-17 19:53:00
1:53 PM,61.0,5.0,11,30.10,-9999.0,North,5.8,-,N/A,,Unknown,360,2012-10-17 20:53:00
2:53 PM,62.1,6.1,11,30.12,-9999.0,Variable,4.6,-,N/A,,Unknown,0,2012-10-17 21:53:00
3:53 PM,62.1,6.1,11,30.12,-9999.0,Variable,4.6,-,N/A,,Unknown,0,2012-10-17 22:53:00
4:53 PM,61.0,3.9,10,30.13,-9999.0,ENE,4.6,-,N/A,,Unknown,70,2012-10-17 23:53:00
5:53 PM,57.0,3.9,12,30.15,-9999.0,NNE,4.6,-,N/A,,Unknown,20,2012-10-18 00:53:00
6:53 PM,50.0,9.0,19,30.20,-9999.0,Calm,Calm,-,N/A,,Unknown,0,2012-10-18 01:53:00
7:53 PM,39.0,7.0,27,30.22,-9999.0,South,4.6,-,N/A,,Unknown,190,2012-10-18 02:53:00
8:53 PM,37.0,3.9,25,30.21,-9999.0,South,5.8,-,N/A,,Unknown,170,2012-10-18 03:53:00
9:53 PM,36.0,5.0,27,30.21,-9999.0,South,4.6,-,N/A,,Unknown,180,2012-10-18 04:53:00
10:53 PM,33.1,9.0,37,30.21,-9999.0,SSE,3.5,-,N/A,,Unknown,160,2012-10-18 05:53:00
11:53 PM,30.9,6.1,35,30.22,-9999.0,South,4.6,-,N/A,,Unknown,190,2012-10-18 06:53:00